sensor_id;sensor_type;location;lat;lon;timestamp;P1;durP1;ratioP1;P2;durP2;ratioP2
13979;SDS011;73871;49.900;8.594;2024-02-26T00:00:39;2.13;;;1.10;;
13979;SDS011;73871;49.900;8.594;2024-02-26T00:03:07;1.60;;;0.97;;
13979;SDS011;73871;49.900;8.594;2024-02-26T00:05:34;2.40;;;1.20;;
13979;SDS011;73871;49.900;8.594;2024-02-26T00:08:01;4.33;;;1.43;;
13979;SDS011;73871;49.900;8.594;2024-02-26T00:10:31;2.23;;;1.10;;
13979;SDS011;73871;49.900;8.594;2024-02-26T00:12:57;2.67;;;1.30;;
13979;SDS011;73871;49.900;8.594;2024-02-26T00:15:24;1.97;;;1.27;;
13979;SDS011;73871;49.900;8.594;2024-02-26T00:17:51;1.37;;;1.17;;
13979;SDS011;73871;49.900;8.594;2024-02-26T00:20:18;2.13;;;1.20;;
13979;SDS011;73871;49.900;8.594;2024-02-26T00:22:44;2.50;;;1.40;;
13979;SDS011;73871;49.900;8.594;2024-02-26T00:25:11;1.70;;;1.20;;
13979;SDS011;73871;49.900;8.594;2024-02-26T00:27:39;1.20;;;0.80;;
13979;SDS011;73871;49.900;8.594;2024-02-26T00:30:07;1.63;;;1.17;;
13979;SDS011;73871;49.900;8.594;2024-02-26T00:32:35;1.60;;;1.10;;
13979;SDS011;73871;49.900;8.594;2024-02-26T00:35:02;1.67;;;1.00;;
13979;SDS011;73871;49.900;8.594;2024-02-26T00:37:29;2.87;;;1.40;;
13979;SDS011;73871;49.900;8.594;2024-02-26T00:39:56;2.30;;;1.20;;
13979;SDS011;73871;49.900;8.594;2024-02-26T00:42:22;2.33;;;1.27;;
13979;SDS011;73871;49.900;8.594;2024-02-26T00:44:49;1.83;;;1.10;;
13979;SDS011;73871;49.900;8.594;2024-02-26T00:47:16;1.77;;;1.10;;
13979;SDS011;73871;49.900;8.594;2024-02-26T00:49:42;1.97;;;1.03;;
13979;SDS011;73871;49.900;8.594;2024-02-26T00:52:09;1.87;;;1.03;;
13979;SDS011;73871;49.900;8.594;2024-02-26T00:54:36;2.33;;;1.27;;
13979;SDS011;73871;49.900;8.594;2024-02-26T00:57:02;2.67;;;1.50;;
13979;SDS011;73871;49.900;8.594;2024-02-26T00:59:29;2.93;;;1.40;;
13979;SDS011;73871;49.900;8.594;2024-02-26T01:01:56;2.27;;;1.67;;
13979;SDS011;73871;49.900;8.594;2024-02-26T01:04:24;1.77;;;1.20;;
13979;SDS011;73871;49.900;8.594;2024-02-26T01:06:51;1.47;;;1.10;;
13979;SDS011;73871;49.900;8.594;2024-02-26T01:09:18;1.10;;;1.00;;
13979;SDS011;73871;49.900;8.594;2024-02-26T01:11:45;3.80;;;1.20;;
13979;SDS011;73871;49.900;8.594;2024-02-26T01:14:13;1.20;;;1.00;;
13979;SDS011;73871;49.900;8.594;2024-02-26T01:16:39;1.30;;;1.00;;
13979;SDS011;73871;49.900;8.594;2024-02-26T01:19:06;1.43;;;1.20;;
13979;SDS011;73871;49.900;8.594;2024-02-26T01:21:33;1.50;;;1.00;;
13979;SDS011;73871;49.900;8.594;2024-02-26T01:24:00;1.23;;;0.97;;
13979;SDS011;73871;49.900;8.594;2024-02-26T01:26:27;1.37;;;1.10;;
13979;SDS011;73871;49.900;8.594;2024-02-26T01:28:53;2.17;;;1.40;;
13979;SDS011;73871;49.900;8.594;2024-02-26T01:31:21;2.13;;;1.30;;
13979;SDS011;73871;49.900;8.594;2024-02-26T01:33:48;1.37;;;1.27;;
13979;SDS011;73871;49.900;8.594;2024-02-26T01:36:15;1.40;;;1.20;;
13979;SDS011;73871;49.900;8.594;2024-02-26T01:38:42;1.23;;;1.13;;
13979;SDS011;73871;49.900;8.594;2024-02-26T01:41:09;3.03;;;1.60;;
13979;SDS011;73871;49.900;8.594;2024-02-26T01:43:35;2.87;;;1.50;;
13979;SDS011;73871;49.900;8.594;2024-02-26T01:46:02;1.67;;;1.27;;
13979;SDS011;73871;49.900;8.594;2024-02-26T01:48:30;1.93;;;1.20;;
13979;SDS011;73871;49.900;8.594;2024-02-26T01:50:57;2.10;;;1.20;;
13979;SDS011;73871;49.900;8.594;2024-02-26T01:53:24;2.00;;;1.20;;
13979;SDS011;73871;49.900;8.594;2024-02-26T01:55:51;1.70;;;1.20;;
13979;SDS011;73871;49.900;8.594;2024-02-26T01:58:17;2.33;;;1.30;;
13979;SDS011;73871;49.900;8.594;2024-02-26T02:00:44;3.30;;;1.50;;
13979;SDS011;73871;49.900;8.594;2024-02-26T02:03:11;2.30;;;1.40;;
13979;SDS011;73871;49.900;8.594;2024-02-26T02:05:39;2.00;;;1.40;;
13979;SDS011;73871;49.900;8.594;2024-02-26T02:08:11;2.20;;;1.37;;
13979;SDS011;73871;49.900;8.594;2024-02-26T02:10:39;2.30;;;1.10;;
13979;SDS011;73871;49.900;8.594;2024-02-26T02:13:10;2.00;;;1.70;;
13979;SDS011;73871;49.900;8.594;2024-02-26T02:15:37;3.10;;;1.47;;
13979;SDS011;73871;49.900;8.594;2024-02-26T02:18:04;1.63;;;1.40;;
13979;SDS011;73871;49.900;8.594;2024-02-26T02:20:32;3.13;;;1.87;;
13979;SDS011;73871;49.900;8.594;2024-02-26T02:23:03;2.67;;;2.20;;
13979;SDS011;73871;49.900;8.594;2024-02-26T02:25:29;2.27;;;1.67;;
13979;SDS011;73871;49.900;8.594;2024-02-26T02:27:56;3.97;;;2.23;;
13979;SDS011;73871;49.900;8.594;2024-02-26T02:30:27;3.40;;;2.17;;
13979;SDS011;73871;49.900;8.594;2024-02-26T02:32:56;4.00;;;2.03;;
13979;SDS011;73871;49.900;8.594;2024-02-26T02:35:25;3.77;;;2.13;;
13979;SDS011;73871;49.900;8.594;2024-02-26T02:37:52;3.50;;;2.40;;
13979;SDS011;73871;49.900;8.594;2024-02-26T02:40:19;4.43;;;2.03;;
13979;SDS011;73871;49.900;8.594;2024-02-26T02:42:45;3.23;;;2.00;;
13979;SDS011;73871;49.900;8.594;2024-02-26T02:45:12;2.17;;;1.90;;
13979;SDS011;73871;49.900;8.594;2024-02-26T02:47:39;1.83;;;1.60;;
13979;SDS011;73871;49.900;8.594;2024-02-26T02:50:06;4.20;;;1.60;;
13979;SDS011;73871;49.900;8.594;2024-02-26T02:52:33;1.27;;;1.17;;
13979;SDS011;73871;49.900;8.594;2024-02-26T02:54:59;2.60;;;1.30;;
13979;SDS011;73871;49.900;8.594;2024-02-26T02:57:27;2.17;;;1.87;;
13979;SDS011;73871;49.900;8.594;2024-02-26T02:59:54;3.20;;;1.97;;
13979;SDS011;73871;49.900;8.594;2024-02-26T03:02:20;2.37;;;1.93;;
13979;SDS011;73871;49.900;8.594;2024-02-26T03:04:47;2.57;;;2.23;;
13979;SDS011;73871;49.900;8.594;2024-02-26T03:07:13;2.70;;;1.93;;
13979;SDS011;73871;49.900;8.594;2024-02-26T03:09:40;3.53;;;2.10;;
13979;SDS011;73871;49.900;8.594;2024-02-26T03:12:07;2.73;;;1.70;;
13979;SDS011;73871;49.900;8.594;2024-02-26T03:14:34;2.27;;;2.00;;
13979;SDS011;73871;49.900;8.594;2024-02-26T03:17:00;1.83;;;1.50;;
13979;SDS011;73871;49.900;8.594;2024-02-26T03:19:27;2.40;;;1.83;;
13979;SDS011;73871;49.900;8.594;2024-02-26T03:21:54;2.10;;;1.90;;
13979;SDS011;73871;49.900;8.594;2024-02-26T03:24:20;4.40;;;2.10;;
13979;SDS011;73871;49.900;8.594;2024-02-26T03:26:47;2.10;;;1.57;;
13979;SDS011;73871;49.900;8.594;2024-02-26T03:29:14;3.00;;;1.80;;
13979;SDS011;73871;49.900;8.594;2024-02-26T03:31:40;3.40;;;1.83;;
13979;SDS011;73871;49.900;8.594;2024-02-26T03:34:07;2.57;;;1.97;;
13979;SDS011;73871;49.900;8.594;2024-02-26T03:36:35;2.43;;;1.70;;
13979;SDS011;73871;49.900;8.594;2024-02-26T03:39:01;2.57;;;2.13;;
13979;SDS011;73871;49.900;8.594;2024-02-26T03:41:31;2.20;;;1.60;;
13979;SDS011;73871;49.900;8.594;2024-02-26T03:43:58;2.23;;;1.60;;
13979;SDS011;73871;49.900;8.594;2024-02-26T03:46:25;2.50;;;2.00;;
13979;SDS011;73871;49.900;8.594;2024-02-26T03:48:51;1.80;;;1.50;;
13979;SDS011;73871;49.900;8.594;2024-02-26T03:51:18;2.63;;;1.83;;
13979;SDS011;73871;49.900;8.594;2024-02-26T03:53:45;2.47;;;1.60;;
13979;SDS011;73871;49.900;8.594;2024-02-26T03:56:12;2.10;;;1.77;;
13979;SDS011;73871;49.900;8.594;2024-02-26T03:58:39;4.40;;;2.10;;
13979;SDS011;73871;49.900;8.594;2024-02-26T04:01:09;3.37;;;1.70;;
13979;SDS011;73871;49.900;8.594;2024-02-26T04:03:36;2.17;;;1.60;;
13979;SDS011;73871;49.900;8.594;2024-02-26T04:06:02;3.50;;;2.00;;
13979;SDS011;73871;49.900;8.594;2024-02-26T04:08:30;2.00;;;1.73;;
13979;SDS011;73871;49.900;8.594;2024-02-26T04:10:57;2.87;;;2.07;;
13979;SDS011;73871;49.900;8.594;2024-02-26T04:13:23;2.53;;;2.00;;
13979;SDS011;73871;49.900;8.594;2024-02-26T04:15:50;3.13;;;1.80;;
13979;SDS011;73871;49.900;8.594;2024-02-26T04:18:17;2.67;;;2.03;;
13979;SDS011;73871;49.900;8.594;2024-02-26T04:20:44;2.30;;;1.90;;
13979;SDS011;73871;49.900;8.594;2024-02-26T04:23:11;3.37;;;1.80;;
13979;SDS011;73871;49.900;8.594;2024-02-26T04:25:38;2.93;;;2.00;;
13979;SDS011;73871;49.900;8.594;2024-02-26T04:28:04;2.03;;;1.70;;
13979;SDS011;73871;49.900;8.594;2024-02-26T04:30:31;2.80;;;2.10;;
13979;SDS011;73871;49.900;8.594;2024-02-26T04:32:58;2.47;;;1.77;;
13979;SDS011;73871;49.900;8.594;2024-02-26T04:35:25;1.97;;;1.70;;
13979;SDS011;73871;49.900;8.594;2024-02-26T04:37:52;3.87;;;2.10;;
13979;SDS011;73871;49.900;8.594;2024-02-26T04:40:18;4.73;;;2.10;;
13979;SDS011;73871;49.900;8.594;2024-02-26T04:42:45;4.87;;;2.43;;
13979;SDS011;73871;49.900;8.594;2024-02-26T04:45:12;3.03;;;2.20;;
13979;SDS011;73871;49.900;8.594;2024-02-26T04:47:38;4.40;;;2.33;;
13979;SDS011;73871;49.900;8.594;2024-02-26T04:50:05;5.40;;;2.83;;
13979;SDS011;73871;49.900;8.594;2024-02-26T04:52:33;7.17;;;3.00;;
13979;SDS011;73871;49.900;8.594;2024-02-26T04:54:59;4.07;;;2.20;;
13979;SDS011;73871;49.900;8.594;2024-02-26T04:57:26;4.47;;;2.20;;
13979;SDS011;73871;49.900;8.594;2024-02-26T04:59:53;4.13;;;2.30;;
13979;SDS011;73871;49.900;8.594;2024-02-26T05:02:20;3.90;;;2.10;;
13979;SDS011;73871;49.900;8.594;2024-02-26T05:04:46;4.13;;;2.10;;
13979;SDS011;73871;49.900;8.594;2024-02-26T05:07:13;3.07;;;2.00;;
13979;SDS011;73871;49.900;8.594;2024-02-26T05:09:40;3.47;;;2.17;;
13979;SDS011;73871;49.900;8.594;2024-02-26T05:12:08;2.37;;;1.90;;
13979;SDS011;73871;49.900;8.594;2024-02-26T05:14:35;3.67;;;2.40;;
13979;SDS011;73871;49.900;8.594;2024-02-26T05:17:02;4.70;;;2.07;;
13979;SDS011;73871;49.900;8.594;2024-02-26T05:19:29;2.30;;;2.00;;
13979;SDS011;73871;49.900;8.594;2024-02-26T05:21:55;4.73;;;2.30;;
13979;SDS011;73871;49.900;8.594;2024-02-26T05:24:23;2.93;;;2.37;;
13979;SDS011;73871;49.900;8.594;2024-02-26T05:26:49;4.20;;;2.10;;
13979;SDS011;73871;49.900;8.594;2024-02-26T05:29:16;3.77;;;2.30;;
13979;SDS011;73871;49.900;8.594;2024-02-26T05:31:43;3.43;;;2.63;;
13979;SDS011;73871;49.900;8.594;2024-02-26T05:34:10;3.80;;;2.73;;
13979;SDS011;73871;49.900;8.594;2024-02-26T05:36:37;3.50;;;3.00;;
13979;SDS011;73871;49.900;8.594;2024-02-26T05:39:04;5.30;;;2.90;;
13979;SDS011;73871;49.900;8.594;2024-02-26T05:41:30;3.27;;;2.97;;
13979;SDS011;73871;49.900;8.594;2024-02-26T05:43:58;3.63;;;3.13;;
13979;SDS011;73871;49.900;8.594;2024-02-26T05:46:25;4.07;;;3.60;;
13979;SDS011;73871;49.900;8.594;2024-02-26T05:48:53;3.70;;;3.40;;
13979;SDS011;73871;49.900;8.594;2024-02-26T05:51:21;4.10;;;3.40;;
13979;SDS011;73871;49.900;8.594;2024-02-26T05:53:48;7.17;;;3.60;;
13979;SDS011;73871;49.900;8.594;2024-02-26T05:56:21;6.63;;;4.27;;
13979;SDS011;73871;49.900;8.594;2024-02-26T05:58:48;7.23;;;3.67;;
13979;SDS011;73871;49.900;8.594;2024-02-26T06:01:15;4.30;;;3.87;;
13979;SDS011;73871;49.900;8.594;2024-02-26T06:03:43;6.10;;;4.17;;
13979;SDS011;73871;49.900;8.594;2024-02-26T06:06:10;6.13;;;4.37;;
13979;SDS011;73871;49.900;8.594;2024-02-26T06:08:37;5.70;;;4.50;;
13979;SDS011;73871;49.900;8.594;2024-02-26T06:11:04;9.10;;;4.90;;
13979;SDS011;73871;49.900;8.594;2024-02-26T06:13:34;6.63;;;4.80;;
13979;SDS011;73871;49.900;8.594;2024-02-26T06:16:01;7.87;;;5.20;;
13979;SDS011;73871;49.900;8.594;2024-02-26T06:18:28;8.70;;;5.53;;
13979;SDS011;73871;49.900;8.594;2024-02-26T06:20:56;7.07;;;5.47;;
13979;SDS011;73871;49.900;8.594;2024-02-26T06:23:23;7.57;;;5.53;;
13979;SDS011;73871;49.900;8.594;2024-02-26T06:25:49;7.80;;;5.63;;
13979;SDS011;73871;49.900;8.594;2024-02-26T06:28:16;7.97;;;5.73;;
13979;SDS011;73871;49.900;8.594;2024-02-26T06:30:43;8.10;;;5.83;;
13979;SDS011;73871;49.900;8.594;2024-02-26T06:33:09;6.93;;;5.40;;
13979;SDS011;73871;49.900;8.594;2024-02-26T06:35:37;9.07;;;6.03;;
13979;SDS011;73871;49.900;8.594;2024-02-26T06:38:04;8.03;;;5.70;;
13979;SDS011;73871;49.900;8.594;2024-02-26T06:40:30;8.90;;;5.80;;
13979;SDS011;73871;49.900;8.594;2024-02-26T06:42:57;8.27;;;5.57;;
13979;SDS011;73871;49.900;8.594;2024-02-26T06:45:24;9.40;;;6.10;;
13979;SDS011;73871;49.900;8.594;2024-02-26T06:47:50;7.90;;;5.60;;
13979;SDS011;73871;49.900;8.594;2024-02-26T06:50:17;7.30;;;6.03;;
13979;SDS011;73871;49.900;8.594;2024-02-26T06:52:44;8.53;;;6.37;;
13979;SDS011;73871;49.900;8.594;2024-02-26T06:55:12;7.83;;;6.30;;
13979;SDS011;73871;49.900;8.594;2024-02-26T06:57:39;9.07;;;6.67;;
13979;SDS011;73871;49.900;8.594;2024-02-26T07:00:06;7.80;;;6.57;;
13979;SDS011;73871;49.900;8.594;2024-02-26T07:02:33;7.93;;;6.03;;
13979;SDS011;73871;49.900;8.594;2024-02-26T07:05:05;7.23;;;6.30;;
13979;SDS011;73871;49.900;8.594;2024-02-26T07:07:31;8.03;;;6.20;;
13979;SDS011;73871;49.900;8.594;2024-02-26T07:09:58;8.03;;;6.83;;
13979;SDS011;73871;49.900;8.594;2024-02-26T07:12:26;11.83;;;6.53;;
13979;SDS011;73871;49.900;8.594;2024-02-26T07:14:53;8.57;;;6.83;;
13979;SDS011;73871;49.900;8.594;2024-02-26T07:17:19;8.63;;;6.40;;
13979;SDS011;73871;49.900;8.594;2024-02-26T07:19:46;11.00;;;7.47;;
13979;SDS011;73871;49.900;8.594;2024-02-26T07:22:13;11.53;;;6.67;;
13979;SDS011;73871;49.900;8.594;2024-02-26T07:24:40;11.83;;;6.97;;
13979;SDS011;73871;49.900;8.594;2024-02-26T07:27:07;9.60;;;6.43;;
13979;SDS011;73871;49.900;8.594;2024-02-26T07:29:34;8.93;;;6.93;;
13979;SDS011;73871;49.900;8.594;2024-02-26T07:32:00;11.43;;;6.10;;
13979;SDS011;73871;49.900;8.594;2024-02-26T07:34:27;8.50;;;7.00;;
13979;SDS011;73871;49.900;8.594;2024-02-26T07:36:56;8.50;;;7.37;;
13979;SDS011;73871;49.900;8.594;2024-02-26T07:39:23;8.27;;;6.90;;
13979;SDS011;73871;49.900;8.594;2024-02-26T07:41:50;12.20;;;8.37;;
13979;SDS011;73871;49.900;8.594;2024-02-26T07:44:19;9.47;;;7.60;;
13979;SDS011;73871;49.900;8.594;2024-02-26T07:46:46;9.70;;;7.47;;
13979;SDS011;73871;49.900;8.594;2024-02-26T07:49:13;9.83;;;7.37;;
13979;SDS011;73871;49.900;8.594;2024-02-26T07:51:40;11.50;;;8.20;;
13979;SDS011;73871;49.900;8.594;2024-02-26T07:54:07;9.50;;;7.67;;
13979;SDS011;73871;49.900;8.594;2024-02-26T07:56:34;13.60;;;7.57;;
13979;SDS011;73871;49.900;8.594;2024-02-26T07:59:01;10.53;;;8.20;;
13979;SDS011;73871;49.900;8.594;2024-02-26T08:01:28;11.90;;;7.37;;
13979;SDS011;73871;49.900;8.594;2024-02-26T08:03:54;8.80;;;6.47;;
13979;SDS011;73871;49.900;8.594;2024-02-26T08:06:22;9.80;;;6.80;;
13979;SDS011;73871;49.900;8.594;2024-02-26T08:08:49;8.23;;;6.83;;
13979;SDS011;73871;49.900;8.594;2024-02-26T08:11:16;8.60;;;6.70;;
13979;SDS011;73871;49.900;8.594;2024-02-26T08:13:43;9.87;;;7.47;;
13979;SDS011;73871;49.900;8.594;2024-02-26T08:16:10;9.63;;;7.50;;
13979;SDS011;73871;49.900;8.594;2024-02-26T08:18:36;8.83;;;6.67;;
13979;SDS011;73871;49.900;8.594;2024-02-26T08:21:03;10.67;;;7.87;;
13979;SDS011;73871;49.900;8.594;2024-02-26T08:23:30;12.13;;;8.23;;
13979;SDS011;73871;49.900;8.594;2024-02-26T08:25:57;11.53;;;8.20;;
13979;SDS011;73871;49.900;8.594;2024-02-26T08:28:24;11.20;;;8.87;;
13979;SDS011;73871;49.900;8.594;2024-02-26T08:30:51;9.23;;;7.40;;
13979;SDS011;73871;49.900;8.594;2024-02-26T08:33:18;10.13;;;7.87;;
13979;SDS011;73871;49.900;8.594;2024-02-26T08:35:44;11.40;;;8.27;;
13979;SDS011;73871;49.900;8.594;2024-02-26T08:38:11;9.53;;;7.57;;
13979;SDS011;73871;49.900;8.594;2024-02-26T08:40:38;10.90;;;7.70;;
13979;SDS011;73871;49.900;8.594;2024-02-26T08:43:05;10.37;;;8.23;;
13979;SDS011;73871;49.900;8.594;2024-02-26T08:45:31;9.57;;;7.83;;
13979;SDS011;73871;49.900;8.594;2024-02-26T08:47:58;7.87;;;6.60;;
13979;SDS011;73871;49.900;8.594;2024-02-26T08:50:26;10.77;;;7.67;;
13979;SDS011;73871;49.900;8.594;2024-02-26T08:52:53;10.10;;;8.10;;
13979;SDS011;73871;49.900;8.594;2024-02-26T08:55:19;9.20;;;7.40;;
13979;SDS011;73871;49.900;8.594;2024-02-26T08:57:47;10.00;;;7.57;;
13979;SDS011;73871;49.900;8.594;2024-02-26T09:00:14;10.17;;;7.97;;
13979;SDS011;73871;49.900;8.594;2024-02-26T09:02:44;9.60;;;7.67;;
13979;SDS011;73871;49.900;8.594;2024-02-26T09:05:10;8.73;;;7.30;;
13979;SDS011;73871;49.900;8.594;2024-02-26T09:07:37;8.57;;;7.17;;
13979;SDS011;73871;49.900;8.594;2024-02-26T09:10:05;8.90;;;7.00;;
13979;SDS011;73871;49.900;8.594;2024-02-26T09:12:34;8.47;;;7.33;;
13979;SDS011;73871;49.900;8.594;2024-02-26T09:15:01;8.03;;;6.93;;
13979;SDS011;73871;49.900;8.594;2024-02-26T09:17:28;7.93;;;6.80;;
13979;SDS011;73871;49.900;8.594;2024-02-26T09:19:55;9.30;;;7.27;;
13979;SDS011;73871;49.900;8.594;2024-02-26T09:22:22;7.63;;;6.33;;
13979;SDS011;73871;49.900;8.594;2024-02-26T09:24:49;8.20;;;7.00;;
13979;SDS011;73871;49.900;8.594;2024-02-26T09:27:17;8.33;;;6.97;;
13979;SDS011;73871;49.900;8.594;2024-02-26T09:29:44;6.70;;;6.00;;
13979;SDS011;73871;49.900;8.594;2024-02-26T09:32:11;7.53;;;5.90;;
13979;SDS011;73871;49.900;8.594;2024-02-26T09:34:39;6.83;;;5.90;;
13979;SDS011;73871;49.900;8.594;2024-02-26T09:37:06;6.37;;;5.10;;
13979;SDS011;73871;49.900;8.594;2024-02-26T09:39:46;8.13;;;6.43;;
13979;SDS011;73871;49.900;8.594;2024-02-26T09:42:13;8.37;;;6.53;;
13979;SDS011;73871;49.900;8.594;2024-02-26T09:44:43;11.07;;;6.13;;
13979;SDS011;73871;49.900;8.594;2024-02-26T09:47:11;6.37;;;5.33;;
13979;SDS011;73871;49.900;8.594;2024-02-26T09:49:41;7.57;;;5.67;;
13979;SDS011;73871;49.900;8.594;2024-02-26T09:52:09;7.60;;;6.47;;
13979;SDS011;73871;49.900;8.594;2024-02-26T09:54:36;7.23;;;5.30;;
13979;SDS011;73871;49.900;8.594;2024-02-26T09:57:03;6.33;;;5.57;;
13979;SDS011;73871;49.900;8.594;2024-02-26T09:59:40;7.17;;;5.73;;
13979;SDS011;73871;49.900;8.594;2024-02-26T10:02:09;6.07;;;5.20;;
13979;SDS011;73871;49.900;8.594;2024-02-26T10:04:42;6.97;;;5.07;;
13979;SDS011;73871;49.900;8.594;2024-02-26T10:07:15;6.97;;;5.63;;
13979;SDS011;73871;49.900;8.594;2024-02-26T10:09:42;7.67;;;5.40;;
13979;SDS011;73871;49.900;8.594;2024-02-26T10:12:10;8.03;;;5.53;;
13979;SDS011;73871;49.900;8.594;2024-02-26T10:14:38;7.00;;;4.87;;
13979;SDS011;73871;49.900;8.594;2024-02-26T10:17:06;5.20;;;4.70;;
13979;SDS011;73871;49.900;8.594;2024-02-26T10:19:34;6.37;;;4.97;;
13979;SDS011;73871;49.900;8.594;2024-02-26T10:22:04;5.27;;;4.63;;
13979;SDS011;73871;49.900;8.594;2024-02-26T10:24:31;5.40;;;4.73;;
13979;SDS011;73871;49.900;8.594;2024-02-26T10:26:58;6.10;;;4.87;;
13979;SDS011;73871;49.900;8.594;2024-02-26T10:29:25;6.00;;;4.10;;
13979;SDS011;73871;49.900;8.594;2024-02-26T10:31:52;4.90;;;4.20;;
13979;SDS011;73871;49.900;8.594;2024-02-26T10:34:19;8.57;;;4.73;;
13979;SDS011;73871;49.900;8.594;2024-02-26T10:36:47;5.30;;;3.87;;
13979;SDS011;73871;49.900;8.594;2024-02-26T10:39:19;4.17;;;3.77;;
13979;SDS011;73871;49.900;8.594;2024-02-26T10:41:47;4.93;;;3.87;;
13979;SDS011;73871;49.900;8.594;2024-02-26T10:44:15;4.77;;;4.17;;
13979;SDS011;73871;49.900;8.594;2024-02-26T10:46:45;5.27;;;4.67;;
13979;SDS011;73871;49.900;8.594;2024-02-26T10:49:16;4.97;;;3.97;;
13979;SDS011;73871;49.900;8.594;2024-02-26T10:51:51;4.47;;;4.03;;
13979;SDS011;73871;49.900;8.594;2024-02-26T10:54:23;5.37;;;4.37;;
13979;SDS011;73871;49.900;8.594;2024-02-26T10:56:52;4.83;;;4.27;;
13979;SDS011;73871;49.900;8.594;2024-02-26T10:59:22;5.50;;;4.33;;
13979;SDS011;73871;49.900;8.594;2024-02-26T11:01:49;4.27;;;3.87;;
13979;SDS011;73871;49.900;8.594;2024-02-26T11:04:17;4.67;;;4.20;;
13979;SDS011;73871;49.900;8.594;2024-02-26T11:06:45;5.50;;;3.70;;
13979;SDS011;73871;49.900;8.594;2024-02-26T11:09:15;4.63;;;4.10;;
13979;SDS011;73871;49.900;8.594;2024-02-26T11:11:43;6.17;;;4.50;;
13979;SDS011;73871;49.900;8.594;2024-02-26T11:14:10;4.20;;;3.80;;
13979;SDS011;73871;49.900;8.594;2024-02-26T11:16:39;5.70;;;4.57;;
13979;SDS011;73871;49.900;8.594;2024-02-26T11:19:09;5.83;;;4.20;;
13979;SDS011;73871;49.900;8.594;2024-02-26T11:21:37;4.67;;;4.23;;
13979;SDS011;73871;49.900;8.594;2024-02-26T11:24:09;7.10;;;4.57;;
13979;SDS011;73871;49.900;8.594;2024-02-26T11:26:43;5.27;;;4.40;;
13979;SDS011;73871;49.900;8.594;2024-02-26T11:29:27;6.20;;;4.43;;
13979;SDS011;73871;49.900;8.594;2024-02-26T11:31:59;5.83;;;4.60;;
13979;SDS011;73871;49.900;8.594;2024-02-26T11:34:26;6.00;;;4.20;;
13979;SDS011;73871;49.900;8.594;2024-02-26T11:36:54;4.53;;;4.10;;
13979;SDS011;73871;49.900;8.594;2024-02-26T11:39:22;7.97;;;4.53;;
13979;SDS011;73871;49.900;8.594;2024-02-26T11:41:50;5.87;;;4.33;;
13979;SDS011;73871;49.900;8.594;2024-02-26T11:44:28;4.73;;;4.30;;
13979;SDS011;73871;49.900;8.594;2024-02-26T11:46:56;5.17;;;4.27;;
13979;SDS011;73871;49.900;8.594;2024-02-26T11:51:57;4.27;;;3.87;;
13979;SDS011;73871;49.900;8.594;2024-02-26T12:05:19;5.23;;;4.57;;
13979;SDS011;73871;49.900;8.594;2024-02-26T12:07:54;6.53;;;4.77;;
13979;SDS011;73871;49.900;8.594;2024-02-26T12:10:35;5.53;;;4.43;;
13979;SDS011;73871;49.900;8.594;2024-02-26T12:13:11;5.73;;;4.27;;
13979;SDS011;73871;49.900;8.594;2024-02-26T12:15:45;4.67;;;4.17;;
13979;SDS011;73871;49.900;8.594;2024-02-26T12:18:21;7.27;;;4.53;;
13979;SDS011;73871;49.900;8.594;2024-02-26T12:21:02;5.00;;;4.37;;
13979;SDS011;73871;49.900;8.594;2024-02-26T12:23:30;5.00;;;4.50;;
13979;SDS011;73871;49.900;8.594;2024-02-26T12:26:00;4.70;;;4.20;;
13979;SDS011;73871;49.900;8.594;2024-02-26T12:28:32;6.93;;;4.70;;
13979;SDS011;73871;49.900;8.594;2024-02-26T12:30:58;6.30;;;4.27;;
13979;SDS011;73871;49.900;8.594;2024-02-26T12:33:26;5.53;;;5.00;;
13979;SDS011;73871;49.900;8.594;2024-02-26T12:35:54;5.90;;;4.87;;
13979;SDS011;73871;49.900;8.594;2024-02-26T12:38:21;5.70;;;4.60;;
13979;SDS011;73871;49.900;8.594;2024-02-26T12:40:48;5.00;;;4.50;;
13979;SDS011;73871;49.900;8.594;2024-02-26T12:43:15;4.33;;;3.70;;
13979;SDS011;73871;49.900;8.594;2024-02-26T12:45:42;5.17;;;3.93;;
13979;SDS011;73871;49.900;8.594;2024-02-26T12:48:14;4.53;;;4.00;;
13979;SDS011;73871;49.900;8.594;2024-02-26T12:50:44;5.10;;;4.13;;
13979;SDS011;73871;49.900;8.594;2024-02-26T12:53:13;5.27;;;4.20;;
13979;SDS011;73871;49.900;8.594;2024-02-26T12:55:40;5.57;;;4.20;;
13979;SDS011;73871;49.900;8.594;2024-02-26T12:58:09;4.90;;;4.13;;
13979;SDS011;73871;49.900;8.594;2024-02-26T13:00:36;5.10;;;4.60;;
13979;SDS011;73871;49.900;8.594;2024-02-26T13:03:04;7.40;;;4.20;;
13979;SDS011;73871;49.900;8.594;2024-02-26T13:05:31;8.50;;;4.57;;
13979;SDS011;73871;49.900;8.594;2024-02-26T13:07:59;6.30;;;4.93;;
13979;SDS011;73871;49.900;8.594;2024-02-26T13:10:25;5.93;;;4.50;;
13979;SDS011;73871;49.900;8.594;2024-02-26T13:12:52;4.90;;;4.40;;
13979;SDS011;73871;49.900;8.594;2024-02-26T13:15:20;7.37;;;6.13;;
13979;SDS011;73871;49.900;8.594;2024-02-26T13:17:48;5.87;;;4.17;;
13979;SDS011;73871;49.900;8.594;2024-02-26T13:20:26;6.00;;;4.03;;
13979;SDS011;73871;49.900;8.594;2024-02-26T13:23:04;5.47;;;4.30;;
13979;SDS011;73871;49.900;8.594;2024-02-26T13:25:33;7.13;;;4.73;;
13979;SDS011;73871;49.900;8.594;2024-02-26T13:28:15;4.90;;;4.40;;
13979;SDS011;73871;49.900;8.594;2024-02-26T13:30:50;5.97;;;4.20;;
13979;SDS011;73871;49.900;8.594;2024-02-26T13:33:24;5.03;;;4.33;;
13979;SDS011;73871;49.900;8.594;2024-02-26T13:35:53;5.77;;;3.97;;
13979;SDS011;73871;49.900;8.594;2024-02-26T13:38:23;5.87;;;4.30;;
13979;SDS011;73871;49.900;8.594;2024-02-26T13:40:50;5.23;;;4.30;;
13979;SDS011;73871;49.900;8.594;2024-02-26T13:43:18;4.47;;;4.07;;
13979;SDS011;73871;49.900;8.594;2024-02-26T13:45:45;4.97;;;4.07;;
13979;SDS011;73871;49.900;8.594;2024-02-26T13:48:13;4.43;;;4.03;;
13979;SDS011;73871;49.900;8.594;2024-02-26T13:50:41;6.03;;;4.67;;
13979;SDS011;73871;49.900;8.594;2024-02-26T13:53:12;6.47;;;4.00;;
13979;SDS011;73871;49.900;8.594;2024-02-26T13:55:40;4.67;;;3.90;;
13979;SDS011;73871;49.900;8.594;2024-02-26T13:58:11;6.40;;;4.33;;
13979;SDS011;73871;49.900;8.594;2024-02-26T14:00:42;5.53;;;4.73;;
13979;SDS011;73871;49.900;8.594;2024-02-26T14:03:09;4.50;;;4.10;;
13979;SDS011;73871;49.900;8.594;2024-02-26T14:05:36;5.80;;;4.77;;
13979;SDS011;73871;49.900;8.594;2024-02-26T14:08:03;5.93;;;4.33;;
13979;SDS011;73871;49.900;8.594;2024-02-26T14:10:31;5.17;;;4.50;;
13979;SDS011;73871;49.900;8.594;2024-02-26T14:12:58;4.30;;;3.60;;
13979;SDS011;73871;49.900;8.594;2024-02-26T14:15:26;4.17;;;3.77;;
13979;SDS011;73871;49.900;8.594;2024-02-26T14:17:54;5.90;;;4.07;;
13979;SDS011;73871;49.900;8.594;2024-02-26T14:20:25;5.03;;;3.70;;
13979;SDS011;73871;49.900;8.594;2024-02-26T14:22:52;4.20;;;3.23;;
13979;SDS011;73871;49.900;8.594;2024-02-26T14:25:20;4.73;;;3.63;;
13979;SDS011;73871;49.900;8.594;2024-02-26T14:27:47;5.37;;;3.83;;
13979;SDS011;73871;49.900;8.594;2024-02-26T14:30:14;5.73;;;3.87;;
13979;SDS011;73871;49.900;8.594;2024-02-26T14:32:41;5.23;;;4.40;;
13979;SDS011;73871;49.900;8.594;2024-02-26T14:35:08;5.77;;;4.47;;
13979;SDS011;73871;49.900;8.594;2024-02-26T14:37:41;5.10;;;3.93;;
13979;SDS011;73871;49.900;8.594;2024-02-26T14:40:13;4.63;;;4.00;;
13979;SDS011;73871;49.900;8.594;2024-02-26T14:42:40;5.13;;;3.67;;
13979;SDS011;73871;49.900;8.594;2024-02-26T14:45:07;5.90;;;3.40;;
13979;SDS011;73871;49.900;8.594;2024-02-26T14:47:36;4.10;;;3.73;;
13979;SDS011;73871;49.900;8.594;2024-02-26T14:50:03;4.33;;;3.87;;
13979;SDS011;73871;49.900;8.594;2024-02-26T14:52:31;5.07;;;3.93;;
13979;SDS011;73871;49.900;8.594;2024-02-26T14:54:58;4.30;;;3.47;;
13979;SDS011;73871;49.900;8.594;2024-02-26T14:57:24;5.53;;;4.00;;
13979;SDS011;73871;49.900;8.594;2024-02-26T14:59:51;5.30;;;3.83;;
13979;SDS011;73871;49.900;8.594;2024-02-26T15:02:18;4.73;;;3.70;;
13979;SDS011;73871;49.900;8.594;2024-02-26T15:04:45;4.23;;;3.20;;